createdAt,value
2018-08-09T00:00:27.127Z,20.52
2018-08-09T00:02:58.016Z,20.52
2018-08-09T00:05:28.906Z,20.48
2018-08-09T00:07:58.216Z,20.47
2018-08-09T00:10:29.672Z,20.45
2018-08-09T00:12:58.970Z,20.42
2018-08-09T00:15:27.988Z,20.36
2018-08-09T00:17:57.397Z,20.35
2018-08-09T00:20:28.506Z,20.32
2018-08-09T00:22:57.973Z,20.25
2018-08-09T00:25:27.169Z,20.27
2018-08-09T00:27:56.337Z,20.24
2018-08-09T00:30:27.246Z,20.23
2018-08-09T00:32:56.426Z,20.22
2018-08-09T00:35:25.755Z,20.21
2018-08-09T00:37:54.934Z,20.22
2018-08-09T00:40:24.262Z,20.15
2018-08-09T00:42:53.350Z,20.12
2018-08-09T00:45:23.753Z,20.10
2018-08-09T00:47:55.364Z,20.11
2018-08-09T00:50:25.046Z,20.08
2018-08-09T00:52:54.335Z,20.08
2018-08-09T00:55:25.532Z,20.06
2018-08-09T00:57:54.697Z,19.98
2018-08-09T01:00:25.696Z,19.94
2018-08-09T01:02:56.476Z,19.97
2018-08-09T01:05:26.295Z,19.96
2018-08-09T01:07:57.434Z,19.88
2018-08-09T01:10:28.136Z,19.87
2018-08-09T01:12:59.120Z,19.86
2018-08-09T01:15:28.345Z,19.84
2018-08-09T01:17:59.752Z,19.86
2018-08-09T01:20:31.254Z,19.86
2018-08-09T01:23:01.394Z,19.87
2018-08-09T01:25:32.331Z,19.87
2018-08-09T01:28:02.764Z,19.83
2018-08-09T01:30:33.496Z,19.81
2018-08-09T01:33:04.204Z,19.81
2018-08-09T01:35:35.054Z,19.81
2018-08-09T01:38:06.537Z,19.78
2018-08-09T01:40:35.739Z,19.71
2018-08-09T01:43:15.868Z,19.70
2018-08-09T01:45:46.296Z,19.70
2018-08-09T01:48:15.416Z,19.70
2018-08-09T01:50:44.724Z,19.70
2018-08-09T01:53:15.159Z,19.70
2018-08-09T01:55:45.102Z,19.68
2018-08-09T01:58:16.438Z,19.64
2018-08-09T02:00:45.632Z,19.60
2018-08-09T02:03:16.802Z,19.57
2018-08-09T02:05:45.692Z,19.53
2018-08-09T02:08:14.865Z,19.53
2018-08-09T02:10:44.112Z,19.61
2018-08-09T02:13:13.243Z,19.60
2018-08-09T02:15:42.900Z,19.59
2018-08-09T02:18:11.669Z,19.53
2018-08-09T02:20:40.631Z,19.49
2018-08-09T02:23:09.904Z,19.42
2018-08-09T02:25:39.029Z,19.41
2018-08-09T02:28:08.248Z,19.40
2018-08-09T02:30:37.347Z,19.36
2018-08-09T02:36:00.860Z,19.32
2018-08-09T02:38:30.133Z,19.33
2018-08-09T02:40:59.338Z,19.31
2018-08-09T02:43:28.430Z,19.32
2018-08-09T02:45:57.485Z,19.31
2018-08-09T02:48:26.800Z,19.31
2018-08-09T02:50:56.089Z,19.31
2018-08-09T02:53:26.916Z,19.27
2018-08-09T02:55:57.619Z,19.26
2018-08-09T02:58:28.148Z,19.19
2018-08-09T03:00:57.426Z,19.19
2018-08-09T03:03:26.407Z,19.18
2018-08-09T03:05:55.499Z,19.16
2018-08-09T03:08:24.795Z,19.15
2018-08-09T03:10:54.015Z,19.15
2018-08-09T03:13:23.222Z,19.12
2018-08-09T03:15:52.356Z,19.05
2018-08-09T03:18:21.973Z,19.02
2018-08-09T03:20:51.158Z,19.00
2018-08-09T03:23:20.419Z,18.94
2018-08-09T03:25:49.602Z,18.97
2018-08-09T03:28:18.710Z,18.94
2018-08-09T03:30:48.450Z,18.93
2018-08-09T03:33:17.651Z,18.86
2018-08-09T03:35:46.820Z,18.86
2018-08-09T03:38:16.736Z,18.86
2018-08-09T03:40:47.917Z,18.83
2018-08-09T03:43:17.076Z,18.79
2018-08-09T03:45:47.459Z,18.79
2018-08-09T03:48:18.537Z,18.77
2018-08-09T03:50:48.763Z,18.79
2018-08-09T03:53:19.586Z,18.84
2018-08-09T03:55:50.716Z,18.90
2018-08-09T03:58:21.760Z,18.87
2018-08-09T04:00:52.338Z,18.94
2018-08-09T04:03:23.125Z,18.99
2018-08-09T04:05:53.838Z,19.01
2018-08-09T04:08:23.998Z,19.04
2018-08-09T04:10:55.692Z,19.15
2018-08-09T04:13:27.126Z,19.22
2018-08-09T04:15:57.617Z,19.28
2018-08-09T04:18:28.587Z,19.34
2018-08-09T04:21:00.035Z,19.38
2018-08-09T04:23:29.330Z,19.46
2018-08-09T04:25:59.250Z,19.50
2018-08-09T04:28:30.319Z,19.50
2018-08-09T04:31:00.090Z,19.55
2018-08-09T04:33:28.940Z,19.63
2018-08-09T04:35:59.408Z,19.72
2018-08-09T04:38:28.209Z,19.77
2018-08-09T04:40:57.635Z,19.85
2018-08-09T04:43:26.429Z,19.87
2018-08-09T04:45:55.687Z,19.91
2018-08-09T04:48:25.077Z,19.93
2018-08-09T04:50:54.798Z,19.96
2018-08-09T04:53:24.133Z,20.05
2018-08-09T04:55:53.918Z,20.13
2018-08-09T04:58:23.264Z,20.16
2018-08-09T05:00:53.143Z,20.23
2018-08-09T05:03:22.458Z,20.40
2018-08-09T05:05:51.630Z,20.36
2018-08-09T05:08:21.057Z,20.35
2018-08-09T05:10:51.728Z,20.35
2018-08-09T05:13:20.802Z,20.36
2018-08-09T05:15:49.865Z,20.48
2018-08-09T05:18:19.148Z,20.52
2018-08-09T05:20:49.147Z,20.56
2018-08-09T05:23:18.349Z,20.66
2018-08-09T05:25:47.419Z,20.77
2018-08-09T05:28:17.154Z,20.88
2018-08-09T05:30:46.457Z,20.97
2018-08-09T05:33:39.696Z,21.06
2018-08-09T05:36:08.774Z,21.15
2018-08-09T05:38:37.995Z,21.25
2018-08-09T05:41:07.192Z,21.38
2018-08-09T05:43:36.300Z,21.55
2018-08-09T05:46:05.730Z,21.68
2018-08-09T05:48:34.910Z,21.86
2018-08-09T05:51:04.104Z,22.06
2018-08-09T05:53:33.255Z,22.26
2018-08-09T05:56:02.417Z,22.36
2018-08-09T05:58:31.625Z,22.55
2018-08-09T06:01:00.760Z,22.79
2018-08-09T06:03:29.876Z,22.99
2018-08-09T06:05:59.054Z,23.16
2018-08-09T06:08:28.269Z,23.37
2018-08-09T06:10:57.474Z,23.57
2018-08-09T06:13:26.838Z,23.76
2018-08-09T06:15:55.948Z,23.93
2018-08-09T06:18:25.072Z,24.14
2018-08-09T06:20:54.296Z,24.29
2018-08-09T06:23:23.416Z,24.37
2018-08-09T06:25:53.049Z,24.40
2018-08-09T06:28:22.481Z,24.38
2018-08-09T06:30:51.661Z,24.33
2018-08-09T06:33:20.858Z,24.29
2018-08-09T06:35:50.078Z,24.24
2018-08-09T06:38:19.055Z,24.29
2018-08-09T06:40:48.101Z,24.26
2018-08-09T06:43:17.314Z,24.26
2018-08-09T06:45:46.548Z,24.25
2018-08-09T06:48:15.854Z,24.47
2018-08-09T06:50:45.064Z,24.62
2018-08-09T06:53:14.215Z,24.75
2018-08-09T06:55:43.305Z,24.85
2018-08-09T06:58:12.417Z,24.95
2018-08-09T07:00:41.636Z,24.99
2018-08-09T07:03:10.842Z,25.08
2018-08-09T07:05:40.080Z,25.07
2018-08-09T07:08:09.300Z,25.15
2018-08-09T07:10:38.583Z,25.16
2018-08-09T07:13:07.880Z,25.24
2018-08-09T07:15:36.988Z,25.29
2018-08-09T07:18:06.219Z,25.34
2018-08-09T07:20:35.400Z,25.36
2018-08-09T07:23:04.614Z,25.45
2018-08-09T07:25:33.819Z,25.58
2018-08-09T07:28:03.086Z,25.72
2018-08-09T07:30:32.320Z,25.77
2018-08-09T07:33:01.435Z,25.88
2018-08-09T07:35:30.521Z,26.08
2018-08-09T07:37:59.618Z,26.25
2018-08-09T07:40:28.818Z,26.38
2018-08-09T07:42:58.133Z,26.49
2018-08-09T07:45:27.401Z,26.56
2018-08-09T07:47:56.516Z,26.70
2018-08-09T07:50:25.717Z,26.86
2018-08-09T07:52:54.908Z,26.80
2018-08-09T07:55:24.011Z,26.94
2018-08-09T07:57:53.156Z,27.06
2018-08-09T08:00:22.413Z,27.09
2018-08-09T08:02:51.648Z,26.79
2018-08-09T08:05:20.895Z,26.85
2018-08-09T08:07:50.111Z,26.64
2018-08-09T08:10:19.294Z,26.81
2018-08-09T08:12:48.512Z,26.96
2018-08-09T08:15:17.688Z,27.15
2018-08-09T08:17:46.910Z,27.22
2018-08-09T08:20:16.038Z,27.30
2018-08-09T08:22:45.187Z,27.48
2018-08-09T08:25:14.411Z,27.66
2018-08-09T08:27:43.636Z,27.76
2018-08-09T08:30:14.175Z,27.89
2018-08-09T08:32:43.826Z,28.10
2018-08-09T08:35:13.025Z,28.17
2018-08-09T08:37:42.386Z,28.33
2018-08-09T08:40:11.628Z,28.36
2018-08-09T08:42:40.828Z,28.60
2018-08-09T08:45:12.637Z,28.63
2018-08-09T08:47:42.261Z,28.62
2018-08-09T08:50:11.863Z,28.64
2018-08-09T08:52:41.004Z,28.76
2018-08-09T08:55:11.592Z,28.96
2018-08-09T08:57:40.734Z,29.07
2018-08-09T09:00:11.386Z,29.12
2018-08-09T09:02:40.931Z,29.13
2018-08-09T09:05:11.845Z,29.34
2018-08-09T09:07:41.004Z,29.43
2018-08-09T09:10:11.337Z,29.38
2018-08-09T09:12:40.629Z,29.37
2018-08-09T09:15:11.966Z,29.55
2018-08-09T09:17:41.949Z,29.78
2018-08-09T09:20:13.716Z,29.96
2018-08-09T09:22:43.541Z,30.09
2018-08-09T09:25:13.022Z,30.15
2018-08-09T09:27:42.210Z,30.26
2018-08-09T09:30:14.203Z,30.46
2018-08-09T09:32:43.287Z,30.67
2018-08-09T09:35:12.553Z,30.81
2018-08-09T09:37:42.289Z,30.96
2018-08-09T09:40:11.468Z,31.07
2018-08-09T09:42:40.648Z,31.14
2018-08-09T09:45:10.509Z,30.98
2018-08-09T09:47:39.766Z,30.93
2018-08-09T09:50:10.357Z,31.10
2018-08-09T09:52:39.637Z,31.12
2018-08-09T09:55:08.890Z,31.30
2018-08-09T09:57:38.232Z,31.31
2018-08-09T10:00:12.555Z,31.45
2018-08-09T10:02:41.820Z,31.44
2018-08-09T10:05:11.021Z,31.21
2018-08-09T10:07:40.501Z,31.36
2018-08-09T10:10:10.296Z,31.49
2018-08-09T10:12:39.725Z,31.70
2018-08-09T10:15:08.849Z,32.01
2018-08-09T10:17:38.090Z,32.14
2018-08-09T10:20:07.678Z,32.21
2018-08-09T10:22:37.072Z,32.30
2018-08-09T10:25:06.483Z,32.60
2018-08-09T10:27:35.556Z,32.88
2018-08-09T10:30:05.432Z,33.17
2018-08-09T10:32:34.461Z,33.37
2018-08-09T10:35:03.581Z,33.65
2018-08-09T10:37:32.697Z,33.63
2018-08-09T10:40:01.825Z,33.73
2018-08-09T10:42:30.856Z,34.00
2018-08-09T10:45:00.047Z,33.93
2018-08-09T10:47:29.232Z,33.69
2018-08-09T10:49:58.440Z,33.55
2018-08-09T10:52:27.471Z,33.53
2018-08-09T10:54:56.743Z,33.58
2018-08-09T10:57:25.837Z,33.80
2018-08-09T10:59:54.909Z,33.74
2018-08-09T11:02:23.908Z,33.62
2018-08-09T11:04:53.024Z,33.78
2018-08-09T11:07:22.212Z,33.83
2018-08-09T11:09:51.269Z,34.04
2018-08-09T11:12:20.494Z,34.24
2018-08-09T11:14:49.633Z,34.41
2018-08-09T11:17:18.903Z,34.48
2018-08-09T11:19:48.022Z,34.48
2018-08-09T11:22:17.308Z,34.54
2018-08-09T11:24:46.386Z,34.68
2018-08-09T11:27:15.602Z,34.82
2018-08-09T11:29:44.596Z,34.63
2018-08-09T11:32:13.676Z,34.73
2018-08-09T11:34:43.585Z,34.71
2018-08-09T11:37:12.808Z,34.99
2018-08-09T11:39:41.949Z,35.35
2018-08-09T11:42:11.244Z,35.85
2018-08-09T11:44:40.514Z,36.12
2018-08-09T11:47:09.772Z,36.35
2018-08-09T11:49:38.795Z,36.24
2018-08-09T11:52:07.772Z,36.34
2018-08-09T11:54:36.990Z,36.37
2018-08-09T11:57:06.116Z,36.95
2018-08-09T11:59:35.284Z,37.43
2018-08-09T12:02:04.437Z,37.84
2018-08-09T12:04:33.753Z,38.42
2018-08-09T12:07:02.888Z,39.17
2018-08-09T12:09:32.184Z,39.51
2018-08-09T12:12:01.334Z,39.99
2018-08-09T12:14:30.532Z,41.36
2018-08-09T12:16:59.678Z,43.10
2018-08-09T12:19:28.810Z,43.97
2018-08-09T12:21:58.079Z,45.41
2018-08-09T12:24:27.335Z,47.03
2018-08-09T12:26:56.578Z,48.75
2018-08-09T12:29:25.656Z,48.85
2018-08-09T12:31:54.702Z,49.20
2018-08-09T12:34:23.853Z,49.90
2018-08-09T12:36:53.052Z,49.02
2018-08-09T12:39:22.156Z,50.61
2018-08-09T12:41:51.346Z,51.68
2018-08-09T12:44:20.555Z,51.08
2018-08-09T12:46:49.742Z,49.42
2018-08-09T12:49:18.853Z,48.92
2018-08-09T12:51:48.098Z,48.68
2018-08-09T12:54:23.521Z,50.93
2018-08-09T12:56:52.797Z,52.87
2018-08-09T12:59:21.996Z,53.89
2018-08-09T13:01:51.082Z,53.61
2018-08-09T13:04:20.178Z,54.42
2018-08-09T13:06:49.405Z,53.67
2018-08-09T13:09:18.580Z,52.31
2018-08-09T13:11:47.678Z,48.99
2018-08-09T13:14:16.886Z,48.17
2018-08-09T13:16:46.069Z,45.98
2018-08-09T13:19:15.167Z,44.35
2018-08-09T13:21:44.192Z,44.01
2018-08-09T13:24:13.380Z,42.98
2018-08-09T13:26:42.352Z,43.15
2018-08-09T13:29:11.560Z,42.21
2018-08-09T13:31:40.661Z,41.46
2018-08-09T13:34:10.216Z,40.38
2018-08-09T13:36:39.353Z,40.53
2018-08-09T13:39:11.459Z,40.36
2018-08-09T13:41:40.749Z,40.15
2018-08-09T13:44:09.914Z,39.59
2018-08-09T13:46:39.119Z,39.29
2018-08-09T13:49:08.265Z,38.10
2018-08-09T13:51:37.541Z,37.65
2018-08-09T13:54:06.679Z,37.25
2018-08-09T13:56:35.757Z,37.02
2018-08-09T13:59:05.067Z,36.91
2018-08-09T14:01:34.354Z,36.73
2018-08-09T14:04:03.632Z,36.28
2018-08-09T14:06:33.082Z,35.51
2018-08-09T14:09:02.305Z,34.74
2018-08-09T14:11:31.665Z,31.66
2018-08-09T14:14:00.715Z,30.01
2018-08-09T14:16:29.909Z,29.64
2018-08-09T14:18:59.118Z,29.70
2018-08-09T14:21:28.302Z,29.48
2018-08-09T14:23:57.647Z,28.58
2018-08-09T14:26:26.957Z,28.00
2018-08-09T14:28:56.274Z,27.48
2018-08-09T14:31:25.588Z,27.33
2018-08-09T14:33:54.960Z,27.18
2018-08-09T14:36:24.238Z,27.26
2018-08-09T14:38:53.321Z,27.17
2018-08-09T14:41:22.400Z,27.26
2018-08-09T14:43:51.522Z,27.41
2018-08-09T14:46:20.612Z,27.43
2018-08-09T14:48:49.808Z,27.83
2018-08-09T14:51:18.907Z,28.38
2018-08-09T14:53:48.155Z,28.71
2018-08-09T14:56:17.201Z,29.31
2018-08-09T14:58:46.380Z,29.37
2018-08-09T15:01:15.490Z,29.08
2018-08-09T15:03:44.693Z,29.19
2018-08-09T15:06:14.206Z,29.58
2018-08-09T15:08:43.279Z,30.09
2018-08-09T15:11:12.656Z,29.87
2018-08-09T15:13:41.924Z,30.13
2018-08-09T15:16:11.265Z,30.22
2018-08-09T15:18:40.500Z,30.35
2018-08-09T15:21:09.658Z,30.43
2018-08-09T15:23:39.045Z,30.02
2018-08-09T15:26:08.357Z,30.42
2018-08-09T15:28:37.584Z,30.75
2018-08-09T15:31:06.712Z,30.36
2018-08-09T15:33:35.787Z,30.31
2018-08-09T15:36:05.014Z,29.77
2018-08-09T15:38:34.149Z,29.32
2018-08-09T15:41:03.290Z,29.53
2018-08-09T15:43:32.481Z,29.83
2018-08-09T15:46:01.790Z,30.09
2018-08-09T15:48:30.976Z,30.52
2018-08-09T15:51:00.074Z,30.67
2018-08-09T15:53:29.284Z,30.38
2018-08-09T15:55:58.360Z,30.78
2018-08-09T15:58:27.582Z,30.60
2018-08-09T16:00:56.756Z,30.10
2018-08-09T16:03:25.884Z,29.68
2018-08-09T16:05:54.953Z,29.66
2018-08-09T16:08:24.180Z,29.38
2018-08-09T16:10:53.458Z,29.25
2018-08-09T16:13:22.673Z,29.36
2018-08-09T16:15:51.745Z,29.19
2018-08-09T16:18:51.794Z,28.83
2018-08-09T16:21:20.980Z,28.54
2018-08-09T16:23:50.088Z,28.38
2018-08-09T16:26:19.433Z,28.29
2018-08-09T16:28:48.749Z,28.29
2018-08-09T16:31:17.949Z,28.27
2018-08-09T16:33:47.194Z,28.19
2018-08-09T16:36:16.486Z,28.08
2018-08-09T16:38:45.676Z,27.90
2018-08-09T16:41:14.880Z,27.56
2018-08-09T16:43:44.082Z,27.56
2018-08-09T16:46:13.277Z,27.77
2018-08-09T16:48:42.912Z,27.99
2018-08-09T16:51:12.340Z,27.80
2018-08-09T16:53:41.665Z,27.98
2018-08-09T16:56:11.052Z,27.72
2018-08-09T16:58:40.259Z,27.72
2018-08-09T17:01:09.470Z,27.83
2018-08-09T17:03:38.702Z,27.61
2018-08-09T17:06:07.850Z,27.42
2018-08-09T17:08:37.005Z,27.11
2018-08-09T17:11:06.261Z,26.87
2018-08-09T17:13:35.413Z,26.79
2018-08-09T17:16:04.941Z,26.81
2018-08-09T17:18:34.975Z,26.69
2018-08-09T17:21:04.255Z,26.49
2018-08-09T17:23:33.925Z,26.20
2018-08-09T17:26:03.362Z,26.00
2018-08-09T17:28:32.585Z,25.83
2018-08-09T17:31:03.646Z,25.60
2018-08-09T17:33:32.976Z,25.47
2018-08-09T17:36:02.894Z,25.47
2018-08-09T17:38:32.537Z,25.33
2018-08-09T17:41:01.745Z,25.01
2018-08-09T17:43:30.996Z,24.88
2018-08-09T17:46:00.356Z,24.71
2018-08-09T17:48:29.378Z,24.62
2018-08-09T17:50:58.477Z,24.66
2018-08-09T17:53:27.752Z,24.61
2018-08-09T17:55:57.338Z,24.50
2018-08-09T17:58:26.529Z,24.51
2018-08-09T18:00:55.801Z,24.44
2018-08-09T18:03:25.095Z,24.34
2018-08-09T18:05:54.175Z,24.27
2018-08-09T18:08:23.448Z,24.27
2018-08-09T18:10:52.474Z,24.29
2018-08-09T18:13:21.462Z,24.09
2018-08-09T18:15:50.601Z,24.12
2018-08-09T18:18:19.680Z,23.99
2018-08-09T18:20:48.758Z,23.91
2018-08-09T18:23:17.972Z,23.77
2018-08-09T18:25:47.209Z,23.63
2018-08-09T18:28:16.503Z,23.42
2018-08-09T18:30:45.834Z,23.18
2018-08-09T18:33:14.979Z,22.75
2018-08-09T18:35:44.356Z,22.49
2018-08-09T18:38:13.659Z,22.36
2018-08-09T18:40:42.915Z,21.92
2018-08-09T18:43:12.048Z,21.76
2018-08-09T18:45:41.217Z,21.45
2018-08-09T18:48:10.424Z,21.30
2018-08-09T18:50:39.643Z,21.12
2018-08-09T18:53:09.218Z,20.84
2018-08-09T18:55:38.489Z,20.64
2018-08-09T18:58:07.897Z,20.73
2018-08-09T19:00:37.184Z,20.72
2018-08-09T19:03:06.368Z,20.52
2018-08-09T19:05:35.586Z,20.49
2018-08-09T19:08:05.193Z,20.33
2018-08-09T19:10:34.382Z,20.25
2018-08-09T19:13:03.609Z,20.19
2018-08-09T19:15:32.776Z,20.12
2018-08-09T19:18:01.953Z,20.10
2018-08-09T19:20:32.565Z,19.92
2018-08-09T19:23:01.977Z,19.85
2018-08-09T19:25:31.246Z,19.79
2018-08-09T19:28:00.469Z,19.83
2018-08-09T19:30:30.517Z,19.79
2018-08-09T19:32:59.619Z,19.73
2018-08-09T19:35:29.052Z,19.69
2018-08-09T19:37:58.146Z,19.64
2018-08-09T19:40:29.664Z,19.68
2018-08-09T19:42:58.922Z,19.60
2018-08-09T19:45:28.206Z,19.68
2018-08-09T19:47:57.401Z,19.68
2018-08-09T19:50:26.746Z,19.57
2018-08-09T19:52:56.015Z,19.59
2018-08-09T19:55:26.414Z,19.64
2018-08-09T19:57:55.593Z,19.64
2018-08-09T20:00:26.214Z,19.69
2018-08-09T20:02:55.449Z,19.60
2018-08-09T20:05:25.425Z,19.58
2018-08-09T20:07:54.628Z,19.62
2018-08-09T20:10:23.867Z,19.64
2018-08-09T20:12:53.055Z,19.55
2018-08-09T20:15:24.757Z,19.66
2018-08-09T20:17:54.067Z,19.55
2018-08-09T20:20:25.326Z,19.59
2018-08-09T20:22:54.615Z,19.70
2018-08-09T20:25:23.773Z,19.76
2018-08-09T20:27:52.954Z,19.88
2018-08-09T20:30:22.175Z,19.85
2018-08-09T20:32:51.506Z,19.88
2018-08-09T20:35:23.270Z,19.77
2018-08-09T20:37:52.875Z,19.78
2018-08-09T20:40:23.007Z,19.88
2018-08-09T20:42:53.232Z,19.89
2018-08-09T20:45:23.396Z,19.85
2018-08-09T20:47:52.661Z,19.86
2018-08-09T20:50:27.580Z,19.87
2018-08-09T20:52:56.795Z,19.90
2018-08-09T20:55:25.961Z,19.86
2018-08-09T20:57:55.908Z,19.83
2018-08-09T21:00:28.548Z,19.88
2018-08-09T21:02:58.848Z,19.93
2018-08-09T21:05:30.500Z,19.90
2018-08-09T21:07:59.650Z,19.96
2018-08-09T21:10:29.545Z,19.91
2018-08-09T21:12:58.845Z,19.90
2018-08-09T21:15:29.945Z,19.83
2018-08-09T21:18:02.351Z,19.79
2018-08-09T21:20:31.997Z,19.83
2018-08-09T21:23:01.305Z,19.83
2018-08-09T21:25:30.385Z,19.80
2018-08-09T21:27:59.489Z,19.77
2018-08-09T21:30:28.809Z,19.77
2018-08-09T21:32:58.082Z,19.83
2018-08-09T21:35:27.277Z,19.91
2018-08-09T21:37:57.573Z,19.95
2018-08-09T21:40:28.128Z,19.94
2018-08-09T21:42:57.260Z,20.02
2018-08-09T21:45:26.507Z,19.98
2018-08-09T21:47:55.769Z,19.98
2018-08-09T21:50:25.120Z,19.93
2018-08-09T21:52:54.272Z,19.94
2018-08-09T21:55:25.153Z,19.94
2018-08-09T21:57:54.415Z,19.97
2018-08-09T22:01:01.268Z,19.95
2018-08-09T22:03:32.153Z,19.89
2018-08-09T22:06:06.293Z,19.88
2018-08-09T22:08:40.388Z,19.84
2018-08-09T22:11:15.728Z,19.87
2018-08-09T22:13:49.925Z,19.87
2018-08-09T22:16:24.029Z,19.85
2018-08-09T22:18:58.446Z,19.75
2018-08-09T22:21:32.621Z,19.83
2018-08-09T22:24:01.785Z,19.83
2018-08-09T22:26:30.892Z,19.85
2018-08-09T22:29:00.079Z,19.75
2018-08-09T22:31:30.656Z,19.68
2018-08-09T22:33:59.813Z,19.69
2018-08-09T22:36:32.385Z,19.65
2018-08-09T22:39:01.573Z,19.71
2018-08-09T22:41:31.415Z,19.55
2018-08-09T22:44:02.320Z,19.47
2018-08-09T22:46:31.636Z,19.57
2018-08-09T22:49:00.829Z,19.60
2018-08-09T22:51:31.853Z,19.59
2018-08-09T22:54:01.085Z,19.59
2018-08-09T22:56:30.650Z,19.54
2018-08-09T22:58:59.921Z,19.52
2018-08-09T23:01:29.192Z,19.67
2018-08-09T23:03:58.335Z,19.73
2018-08-09T23:06:29.301Z,19.66
2018-08-09T23:08:58.425Z,19.77
2018-08-09T23:11:27.644Z,19.67
2018-08-09T23:13:56.810Z,19.63
2018-08-09T23:16:25.914Z,19.67
2018-08-09T23:18:55.013Z,19.68
2018-08-09T23:21:24.086Z,19.73
2018-08-09T23:23:53.366Z,19.70
2018-08-09T23:26:22.721Z,19.71
2018-08-09T23:28:51.996Z,19.76
2018-08-09T23:31:21.174Z,19.74
2018-08-09T23:33:50.396Z,19.70
2018-08-09T23:36:19.504Z,19.88
2018-08-09T23:38:48.690Z,19.81
2018-08-09T23:41:18.061Z,19.77
2018-08-09T23:43:47.286Z,19.85
2018-08-09T23:46:16.660Z,19.93
2018-08-09T23:48:45.860Z,19.89
2018-08-09T23:51:14.891Z,19.83
2018-08-09T23:53:43.981Z,19.78
2018-08-09T23:56:13.196Z,19.90
2018-08-09T23:58:42.280Z,19.86
